GFA219 OBBI-OKKK
Flight info
| Callsign | GFA219 |
|---|---|
| Flight time | 0h 51m |
| Altitude | 26000 |
| Route | BHR345/30R BHR A453 DEBTI |
| Aircraft | A21N/M-SDE3FGHIRWY/LB1 |
Departure
| Time | 2026-05-04 16:33 |
|---|---|
| Airport | Bahrain International Airport (OBBI) |
Arrival
| Time | 2026-05-04 17:24 |
|---|---|
| Airport | Kuwait International Airport (OKKK) |
| Time | Latitude | Longitude | Altitude | Speed | Heading |
|---|---|---|---|---|---|
| 2026-05-04 16:08 | 26.26883 | 50.62940 | 12 ft | 0 kts | 213° |
| 2026-05-04 16:19 | 26.26898 | 50.62950 | 12 ft | 2 kts | 213° |
| 2026-05-04 16:20 | 26.26936 | 50.62977 | 12 ft | 2 kts | 213° |
| 2026-05-04 16:20 | 26.26958 | 50.62993 | 12 ft | 0 kts | 213° |
| 2026-05-04 16:21 | 26.26970 | 50.62999 | 12 ft | 3 kts | 130° |
| 2026-05-04 16:22 | 26.26962 | 50.63012 | 12 ft | 0 kts | 122° |
| 2026-05-04 16:24 | 26.26908 | 50.63102 | 12 ft | 7 kts | 123° |
| 2026-05-04 16:25 | 26.26845 | 50.63217 | 12 ft | 6 kts | 122° |
| 2026-05-04 16:26 | 26.26806 | 50.63369 | 12 ft | 7 kts | 45° |
| 2026-05-04 16:26 | 26.26755 | 50.63574 | 12 ft | 18 kts | 122° |
| 2026-05-04 16:27 | 26.26573 | 50.63887 | 12 ft | 29 kts | 123° |
| 2026-05-04 16:28 | 26.26227 | 50.64487 | 12 ft | 28 kts | 122° |
| 2026-05-04 16:28 | 26.25997 | 50.64900 | 12 ft | 10 kts | 76° |
| 2026-05-04 16:29 | 26.26072 | 50.64986 | 12 ft | 9 kts | 33° |
| 2026-05-04 16:30 | 26.26146 | 50.64989 | 12 ft | 0 kts | 303° |
| 2026-05-04 16:32 | 26.26600 | 50.64205 | 12 ft | 135 kts | 303° |
| 2026-05-04 16:33 | 26.27916 | 50.61981 | 936 ft | 181 kts | 302° |
| 2026-05-04 16:33 | 26.29457 | 50.60004 | 2416 ft | 177 kts | 335° |
| 2026-05-04 16:34 | 26.32049 | 50.59234 | 3047 ft | 210 kts | 347° |
| 2026-05-04 16:34 | 26.33541 | 50.58844 | 3226 ft | 232 kts | 345° |
| 2026-05-04 16:35 | 26.38616 | 50.57407 | 4591 ft | 260 kts | 345° |
| 2026-05-04 16:35 | 26.43933 | 50.55916 | 6257 ft | 266 kts | 345° |
| 2026-05-04 16:36 | 26.45730 | 50.55413 | 6758 ft | 268 kts | 345° |
| 2026-05-04 16:36 | 26.49385 | 50.54389 | 7770 ft | 273 kts | 345° |
| 2026-05-04 16:37 | 26.53091 | 50.53350 | 8719 ft | 277 kts | 345° |
| 2026-05-04 16:37 | 26.54945 | 50.52831 | 9168 ft | 279 kts | 345° |
| 2026-05-04 16:37 | 26.58763 | 50.51763 | 10042 ft | 284 kts | 345° |
| 2026-05-04 16:38 | 26.62720 | 50.50650 | 10587 ft | 305 kts | 345° |
| 2026-05-04 16:39 | 26.69210 | 50.48649 | 11274 ft | 339 kts | 335° |
| 2026-05-04 16:39 | 26.73128 | 50.45586 | 12134 ft | 348 kts | 317° |
| 2026-05-04 16:40 | 26.76633 | 50.41872 | 13114 ft | 352 kts | 316° |
| 2026-05-04 16:40 | 26.80226 | 50.38052 | 14070 ft | 358 kts | 316° |
| 2026-05-04 16:41 | 26.83871 | 50.34191 | 15039 ft | 365 kts | 315° |
| 2026-05-04 16:41 | 26.89351 | 50.28386 | 17068 ft | 353 kts | 315° |
| 2026-05-04 16:42 | 26.94640 | 50.22770 | 18722 ft | 353 kts | 314° |
| 2026-05-04 16:43 | 26.98232 | 50.18951 | 19683 ft | 358 kts | 314° |
| 2026-05-04 16:43 | 27.01869 | 50.15081 | 20656 ft | 363 kts | 313° |
| 2026-05-04 16:43 | 27.03698 | 50.13122 | 21114 ft | 366 kts | 312° |
| 2026-05-04 16:44 | 27.10495 | 50.04489 | 22833 ft | 374 kts | 307° |
| 2026-05-04 16:45 | 27.13886 | 50.00029 | 23646 ft | 379 kts | 307° |
| 2026-05-04 16:46 | 27.19058 | 49.93221 | 24851 ft | 384 kts | 307° |
| 2026-05-04 16:46 | 27.22516 | 49.88663 | 25634 ft | 387 kts | 306° |
| 2026-05-04 16:47 | 27.26018 | 49.84043 | 25854 ft | 385 kts | 306° |
| 2026-05-04 16:47 | 27.29470 | 49.79487 | 25873 ft | 381 kts | 306° |
| 2026-05-04 16:48 | 27.34591 | 49.72702 | 25789 ft | 378 kts | 306° |
| 2026-05-04 16:48 | 27.36290 | 49.70448 | 25779 ft | 378 kts | 306° |
| 2026-05-04 16:49 | 27.39674 | 49.65955 | 25764 ft | 378 kts | 305° |
| 2026-05-04 16:49 | 27.43075 | 49.61434 | 25768 ft | 378 kts | 306° |
| 2026-05-04 16:50 | 27.46492 | 49.56942 | 25779 ft | 380 kts | 307° |
| 2026-05-04 16:50 | 27.50314 | 49.52796 | 25783 ft | 384 kts | 314° |
| 2026-05-04 16:51 | 27.54482 | 49.49023 | 25784 ft | 385 kts | 316° |
| 2026-05-04 16:51 | 27.56594 | 49.47135 | 25784 ft | 385 kts | 316° |
| 2026-05-04 16:51 | 27.60798 | 49.43370 | 25784 ft | 385 kts | 316° |
| 2026-05-04 16:52 | 27.64969 | 49.39627 | 25786 ft | 385 kts | 316° |
| 2026-05-04 16:52 | 27.67075 | 49.37736 | 25787 ft | 385 kts | 316° |
| 2026-05-04 16:53 | 27.71251 | 49.33981 | 25790 ft | 385 kts | 315° |
| 2026-05-04 16:53 | 27.77523 | 49.28332 | 25789 ft | 384 kts | 315° |
| 2026-05-04 16:54 | 27.79611 | 49.26449 | 25790 ft | 384 kts | 315° |
| 2026-05-04 16:55 | 27.88090 | 49.19066 | 25790 ft | 388 kts | 320° |
| 2026-05-04 16:55 | 27.92718 | 49.15915 | 25781 ft | 390 kts | 323° |
| 2026-05-04 16:56 | 27.97415 | 49.12839 | 25776 ft | 391 kts | 324° |
| 2026-05-04 16:56 | 28.04455 | 49.08224 | 25288 ft | 386 kts | 323° |
| 2026-05-04 16:57 | 28.06793 | 49.06689 | 25073 ft | 385 kts | 323° |
| 2026-05-04 16:57 | 28.11399 | 49.03659 | 24359 ft | 381 kts | 323° |
| 2026-05-04 16:58 | 28.18170 | 48.99194 | 23041 ft | 371 kts | 324° |
| 2026-05-04 16:58 | 28.20395 | 48.97724 | 22598 ft | 369 kts | 324° |
| 2026-05-04 16:59 | 28.24807 | 48.94809 | 21791 ft | 364 kts | 324° |
| 2026-05-04 17:00 | 28.33464 | 48.89097 | 21009 ft | 349 kts | 324° |
| 2026-05-04 17:00 | 28.39586 | 48.85047 | 20073 ft | 332 kts | 324° |
| 2026-05-04 17:01 | 28.43530 | 48.82430 | 19541 ft | 326 kts | 325° |
| 2026-05-04 17:01 | 28.47435 | 48.79835 | 19035 ft | 323 kts | 325° |
| 2026-05-04 17:02 | 28.51297 | 48.77265 | 18532 ft | 320 kts | 325° |
| 2026-05-04 17:02 | 28.52894 | 48.76202 | 18324 ft | 319 kts | 325° |
| 2026-05-04 17:03 | 28.54454 | 48.75158 | 18121 ft | 317 kts | 324° |
| 2026-05-04 17:03 | 28.56265 | 48.73733 | 17871 ft | 313 kts | 318° |
| 2026-05-04 17:03 | 28.59355 | 48.70326 | 17376 ft | 306 kts | 306° |
| 2026-05-04 17:04 | 28.61920 | 48.66526 | 16884 ft | 303 kts | 304° |
| 2026-05-04 17:04 | 28.64446 | 48.62716 | 16391 ft | 300 kts | 304° |
| 2026-05-04 17:05 | 28.66952 | 48.58942 | 15892 ft | 298 kts | 304° |
| 2026-05-04 17:05 | 28.69440 | 48.55193 | 15393 ft | 295 kts | 305° |
| 2026-05-04 17:06 | 28.71907 | 48.51476 | 14896 ft | 292 kts | 305° |
| 2026-05-04 17:06 | 28.73249 | 48.49762 | 14648 ft | 293 kts | 314° |
| 2026-05-04 17:07 | 28.76621 | 48.47101 | 14154 ft | 295 kts | 327° |
| 2026-05-04 17:07 | 28.77807 | 48.46360 | 13993 ft | 295 kts | 328° |
| 2026-05-04 17:07 | 28.80207 | 48.44878 | 13664 ft | 293 kts | 328° |
| 2026-05-04 17:07 | 28.82000 | 48.43774 | 13419 ft | 292 kts | 328° |
| 2026-05-04 17:08 | 28.83787 | 48.42670 | 13173 ft | 290 kts | 328° |
| 2026-05-04 17:08 | 28.87320 | 48.40471 | 12686 ft | 288 kts | 328° |
| 2026-05-04 17:08 | 28.89065 | 48.39383 | 12445 ft | 287 kts | 328° |
| 2026-05-04 17:09 | 28.90824 | 48.38291 | 12202 ft | 286 kts | 328° |
| 2026-05-04 17:09 | 28.92588 | 48.37195 | 11958 ft | 285 kts | 328° |
| 2026-05-04 17:09 | 28.94310 | 48.36126 | 11717 ft | 284 kts | 328° |
| 2026-05-04 17:10 | 28.97769 | 48.33971 | 11234 ft | 281 kts | 328° |
| 2026-05-04 17:10 | 29.02907 | 48.30772 | 10512 ft | 278 kts | 328° |
| 2026-05-04 17:11 | 29.04598 | 48.29715 | 10263 ft | 277 kts | 328° |
| 2026-05-04 17:11 | 29.06298 | 48.28651 | 9969 ft | 277 kts | 328° |
| 2026-05-04 17:11 | 29.09669 | 48.26546 | 9389 ft | 276 kts | 328° |
| 2026-05-04 17:12 | 29.11343 | 48.25501 | 9100 ft | 275 kts | 329° |
| 2026-05-04 17:12 | 29.14691 | 48.23407 | 8524 ft | 275 kts | 329° |
| 2026-05-04 17:13 | 29.19732 | 48.20256 | 7666 ft | 274 kts | 330° |
| 2026-05-04 17:14 | 29.24736 | 48.17119 | 6820 ft | 272 kts | 330° |
| 2026-05-04 17:14 | 29.26392 | 48.16082 | 6542 ft | 271 kts | 330° |
| 2026-05-04 17:14 | 29.29681 | 48.14026 | 5986 ft | 269 kts | 330° |
| 2026-05-04 17:15 | 29.31333 | 48.12987 | 5702 ft | 267 kts | 330° |
| 2026-05-04 17:15 | 29.34496 | 48.11006 | 5218 ft | 253 kts | 331° |
| 2026-05-04 17:16 | 29.37513 | 48.09109 | 4741 ft | 241 kts | 331° |
| 2026-05-04 17:16 | 29.41754 | 48.06440 | 4025 ft | 224 kts | 331° |
| 2026-05-04 17:17 | 29.43113 | 48.05586 | 3786 ft | 220 kts | 331° |
| 2026-05-04 17:17 | 29.45281 | 48.01446 | 3074 ft | 223 kts | 267° |
| 2026-05-04 17:18 | 29.45128 | 47.99692 | 2847 ft | 223 kts | 264° |
| 2026-05-04 17:18 | 29.44254 | 47.96384 | 2602 ft | 205 kts | 245° |
| 2026-05-04 17:19 | 29.42963 | 47.93497 | 2525 ft | 202 kts | 244° |
| 2026-05-04 17:19 | 29.41675 | 47.90630 | 2508 ft | 203 kts | 244° |
| 2026-05-04 17:20 | 29.40322 | 47.87799 | 2493 ft | 203 kts | 229° |
| 2026-05-04 17:20 | 29.37725 | 47.86640 | 2498 ft | 205 kts | 179° |
| 2026-05-04 17:20 | 29.36330 | 47.86977 | 2513 ft | 206 kts | 161° |
| 2026-05-04 17:21 | 29.33719 | 47.88356 | 2367 ft | 206 kts | 154° |
| 2026-05-04 17:21 | 29.31153 | 47.89766 | 1858 ft | 203 kts | 155° |
| 2026-05-04 17:22 | 29.29866 | 47.90449 | 1599 ft | 198 kts | 155° |
| 2026-05-04 17:22 | 29.28678 | 47.91077 | 1376 ft | 180 kts | 155° |
| 2026-05-04 17:23 | 29.25660 | 47.92681 | 754 ft | 148 kts | 155° |
| 2026-05-04 17:23 | 29.24722 | 47.93173 | 587 ft | 146 kts | 154° |
| 2026-05-04 17:23 | 29.22924 | 47.94139 | 225 ft | 140 kts | 154° |
| 2026-05-04 17:24 | 29.22094 | 47.94582 | 157 ft | 115 kts | 155° |
| 2026-05-04 17:24 | 29.21302 | 47.95133 | 155 ft | 14 kts | 121° |
| 2026-05-04 17:25 | 29.21295 | 47.95187 | 155 ft | 0 kts | 78° |
| 2026-05-04 17:25 | 29.21309 | 47.95215 | 155 ft | 9 kts | 42° |
| 2026-05-04 17:26 | 29.21469 | 47.95161 | 154 ft | 13 kts | 334° |
| 2026-05-04 17:26 | 29.21743 | 47.95015 | 154 ft | 15 kts | 334° |
| 2026-05-04 17:27 | 29.21952 | 47.94976 | 154 ft | 16 kts | 56° |
| 2026-05-04 17:27 | 29.22050 | 47.95214 | 156 ft | 15 kts | 66° |
| 2026-05-04 17:28 | 29.22153 | 47.95466 | 157 ft | 21 kts | 66° |
| 2026-05-04 17:29 | 29.22405 | 47.96086 | 151 ft | 31 kts | 65° |
| 2026-05-04 17:29 | 29.22643 | 47.96630 | 151 ft | 17 kts | 20° |
| 2026-05-04 17:30 | 29.22959 | 47.96486 | 148 ft | 8 kts | 335° |
| 2026-05-04 17:31 | 29.23025 | 47.96528 | 148 ft | 6 kts | 68° |
| 2026-05-04 17:31 | 29.23117 | 47.96757 | 149 ft | 4 kts | 65° |
| 2026-05-04 17:32 | 29.23143 | 47.96823 | 148 ft | 2 kts | 64° |
| 2026-05-04 17:33 | 29.23340 | 47.96778 | 147 ft | 14 kts | 341° |
| 2026-05-04 17:33 | 29.23412 | 47.96836 | 148 ft | 13 kts | 64° |
| 2026-05-04 17:34 | 29.23533 | 47.97131 | 151 ft | 12 kts | 64° |
| 2026-05-04 17:34 | 29.23568 | 47.97215 | 153 ft | 11 kts | 64° |
| 2026-05-04 17:35 | 29.23663 | 47.97446 | 156 ft | 9 kts | 47° |
| 2026-05-04 17:35 | 29.23786 | 47.97413 | 157 ft | 9 kts | 334° |
| 2026-05-04 17:35 | 29.23826 | 47.97360 | 157 ft | 9 kts | 269° |
| 2026-05-04 17:36 | 29.23807 | 47.97305 | 156 ft | 2 kts | 241° |
| 2026-05-04 17:36 | 29.23803 | 47.97298 | 155 ft | 0 kts | 240° |